sensor_id;sensor_type;location;lat;lon;timestamp;pressure;altitude;pressure_sealevel;temperature;humidity
12468;BME280;57850;52.922;6.256;2024-03-25T00:00:09;100782.31;;;14.01;nan
12468;BME280;57850;52.922;6.256;2024-03-25T00:02:36;100780.38;;;14.04;nan
12468;BME280;57850;52.922;6.256;2024-03-25T00:05:03;100774.44;;;14.01;nan
12468;BME280;57850;52.922;6.256;2024-03-25T00:07:29;100772.81;;;14.15;nan
12468;BME280;57850;52.922;6.256;2024-03-25T00:09:55;100775.81;;;14.08;nan
12468;BME280;57850;52.922;6.256;2024-03-25T00:12:22;100774.28;;;13.69;nan
12468;BME280;57850;52.922;6.256;2024-03-25T00:14:48;100776.97;;;14.19;nan
12468;BME280;57850;52.922;6.256;2024-03-25T00:17:15;100773.25;;;14.40;nan
12468;BME280;57850;52.922;6.256;2024-03-25T00:19:42;100781.31;;;13.86;nan
12468;BME280;57850;52.922;6.256;2024-03-25T00:22:08;100776.91;;;14.21;nan
12468;BME280;57850;52.922;6.256;2024-03-25T00:24:34;100776.38;;;13.97;nan
12468;BME280;57850;52.922;6.256;2024-03-25T00:27:00;100772.81;;;14.15;nan
12468;BME280;57850;52.922;6.256;2024-03-25T00:29:27;100764.91;;;14.50;nan
12468;BME280;57850;52.922;6.256;2024-03-25T00:31:53;100772.88;;;14.31;nan
12468;BME280;57850;52.922;6.256;2024-03-25T00:34:22;100775.91;;;14.06;nan
12468;BME280;57850;52.922;6.256;2024-03-25T00:36:47;100773.19;;;14.25;nan
12468;BME280;57850;52.922;6.256;2024-03-25T00:39:15;100772.94;;;14.29;nan
12468;BME280;57850;52.922;6.256;2024-03-25T00:41:40;100769.81;;;14.56;nan
12468;BME280;57850;52.922;6.256;2024-03-25T00:44:07;100770.31;;;14.46;nan
12468;BME280;57850;52.922;6.256;2024-03-25T00:46:32;100769.69;;;14.41;nan
12468;BME280;57850;52.922;6.256;2024-03-25T00:48:59;100773.84;;;14.45;nan
12468;BME280;57850;52.922;6.256;2024-03-25T00:51:26;100779.53;;;14.21;nan
12468;BME280;57850;52.922;6.256;2024-03-25T00:53:52;100777.13;;;14.33;nan
12468;BME280;57850;52.922;6.256;2024-03-25T00:56:18;100772.28;;;14.59;nan
12468;BME280;57850;52.922;6.256;2024-03-25T00:58:45;100780.19;;;14.41;nan
12468;BME280;57850;52.922;6.256;2024-03-25T01:01:11;100779.88;;;14.30;nan
12468;BME280;57850;52.922;6.256;2024-03-25T01:03:39;100783.31;;;14.15;nan
12468;BME280;57850;52.922;6.256;2024-03-25T01:06:04;100785.31;;;14.27;nan
12468;BME280;57850;52.922;6.256;2024-03-25T01:08:32;100778.91;;;14.33;nan
12468;BME280;57850;52.922;6.256;2024-03-25T01:10:58;100789.56;;;13.78;nan
12468;BME280;57850;52.922;6.256;2024-03-25T01:13:25;100777.16;;;14.32;nan
12468;BME280;57850;52.922;6.256;2024-03-25T01:15:51;100764.38;;;14.43;nan
12468;BME280;57850;52.922;6.256;2024-03-25T01:18:18;100772.78;;;14.50;nan
12468;BME280;57850;52.922;6.256;2024-03-25T01:20:43;100764.72;;;14.53;nan
12468;BME280;57850;52.922;6.256;2024-03-25T01:23:10;100776.00;;;13.70;nan
12468;BME280;57850;52.922;6.256;2024-03-25T01:25:37;100780.78;;;13.97;nan
12468;BME280;57850;52.922;6.256;2024-03-25T01:28:04;100782.69;;;14.27;nan
12468;BME280;57850;52.922;6.256;2024-03-25T01:30:29;100783.13;;;14.35;nan
12468;BME280;57850;52.922;6.256;2024-03-25T01:32:56;100802.69;;;13.95;nan
12468;BME280;57850;52.922;6.256;2024-03-25T01:35:22;100801.75;;;13.79;nan
12468;BME280;57850;52.922;6.256;2024-03-25T01:37:49;100789.66;;;13.77;nan
12468;BME280;57850;52.922;6.256;2024-03-25T01:40:14;100775.13;;;14.54;nan
12468;BME280;57850;52.922;6.256;2024-03-25T01:42:43;100769.84;;;14.38;nan
12468;BME280;57850;52.922;6.256;2024-03-25T01:45:09;100769.19;;;14.01;nan
12468;BME280;57850;52.922;6.256;2024-03-25T01:47:37;100780.22;;;14.07;nan
12468;BME280;57850;52.922;6.256;2024-03-25T01:50:06;100777.31;;;13.96;nan
12468;BME280;57850;52.922;6.256;2024-03-25T01:52:33;100793.13;;;13.77;nan
12468;BME280;57850;52.922;6.256;2024-03-25T01:54:59;100786.03;;;13.79;nan
12468;BME280;57850;52.922;6.256;2024-03-25T01:57:28;100778.91;;;13.81;nan
12468;BME280;57850;52.922;6.256;2024-03-25T01:59:55;100784.53;;;13.39;nan
12468;BME280;57850;52.922;6.256;2024-03-25T02:02:22;100785.97;;;13.81;nan
12468;BME280;57850;52.922;6.256;2024-03-25T02:04:48;100777.94;;;13.14;nan
12468;BME280;57850;52.922;6.256;2024-03-25T02:07:16;100792.56;;;13.54;nan
12468;BME280;57850;52.922;6.256;2024-03-25T02:09:42;100789.72;;;13.58;nan
12468;BME280;57850;52.922;6.256;2024-03-25T02:12:09;100791.34;;;13.44;nan
12468;BME280;57850;52.922;6.256;2024-03-25T02:14:35;100797.16;;;13.31;nan
12468;BME280;57850;52.922;6.256;2024-03-25T02:17:04;100796.84;;;13.37;nan
12468;BME280;57850;52.922;6.256;2024-03-25T02:19:31;100797.13;;;13.67;nan
12468;BME280;57850;52.922;6.256;2024-03-25T02:21:58;100798.00;;;13.32;nan
12468;BME280;57850;52.922;6.256;2024-03-25T02:24:25;100799.22;;;13.78;nan
12468;BME280;57850;52.922;6.256;2024-03-25T02:26:54;100782.78;;;13.91;nan
12468;BME280;57850;52.922;6.256;2024-03-25T02:29:19;100793.53;;;13.87;nan
12468;BME280;57850;52.922;6.256;2024-03-25T02:31:46;100795.03;;;13.91;nan
12468;BME280;57850;52.922;6.256;2024-03-25T02:34:12;100789.41;;;13.99;nan
12468;BME280;57850;52.922;6.256;2024-03-25T02:36:39;100788.72;;;14.12;nan
12468;BME280;57850;52.922;6.256;2024-03-25T02:39:04;100791.41;;;14.11;nan
12468;BME280;57850;52.922;6.256;2024-03-25T02:41:31;100786.50;;;13.87;nan
12468;BME280;57850;52.922;6.256;2024-03-25T02:43:58;100792.41;;;14.08;nan
12468;BME280;57850;52.922;6.256;2024-03-25T02:46:25;100786.78;;;13.99;nan
12468;BME280;57850;52.922;6.256;2024-03-25T02:48:51;100779.44;;;14.39;nan
12468;BME280;57850;52.922;6.256;2024-03-25T02:51:17;100784.34;;;14.28;nan
12468;BME280;57850;52.922;6.256;2024-03-25T02:53:43;100789.91;;;14.22;nan
12468;BME280;57850;52.922;6.256;2024-03-25T02:56:09;100791.13;;;14.00;nan
12468;BME280;57850;52.922;6.256;2024-03-25T02:58:35;100790.50;;;14.12;nan
12468;BME280;57850;52.922;6.256;2024-03-25T03:01:03;100789.78;;;13.91;nan
12468;BME280;57850;52.922;6.256;2024-03-25T03:03:29;100786.06;;;14.29;nan
12468;BME280;57850;52.922;6.256;2024-03-25T03:05:55;100788.00;;;13.40;nan
12468;BME280;57850;52.922;6.256;2024-03-25T03:08:21;100799.38;;;13.75;nan
12468;BME280;57850;52.922;6.256;2024-03-25T03:10:47;100806.34;;;13.40;nan
12468;BME280;57850;52.922;6.256;2024-03-25T03:13:13;100810.22;;;13.50;nan
12468;BME280;57850;52.922;6.256;2024-03-25T03:15:43;100796.66;;;14.11;nan
12468;BME280;57850;52.922;6.256;2024-03-25T03:18:10;100795.59;;;13.80;nan
12468;BME280;57850;52.922;6.256;2024-03-25T03:20:36;100778.97;;;14.31;nan
12468;BME280;57850;52.922;6.256;2024-03-25T03:23:02;100787.81;;;14.29;nan
12468;BME280;57850;52.922;6.256;2024-03-25T03:25:29;100813.69;;;13.15;nan
12468;BME280;57850;52.922;6.256;2024-03-25T03:27:56;100803.03;;;13.54;nan
12468;BME280;57850;52.922;6.256;2024-03-25T03:30:22;100797.25;;;14.50;nan
12468;BME280;57850;52.922;6.256;2024-03-25T03:32:48;100803.63;;;13.77;nan
12468;BME280;57850;52.922;6.256;2024-03-25T03:35:16;100813.25;;;14.11;nan
12468;BME280;57850;52.922;6.256;2024-03-25T03:37:42;100810.34;;;13.47;nan
12468;BME280;57850;52.922;6.256;2024-03-25T03:40:09;100819.19;;;13.63;nan
12468;BME280;57850;52.922;6.256;2024-03-25T03:42:36;100811.16;;;14.01;nan
12468;BME280;57850;52.922;6.256;2024-03-25T03:45:03;100824.81;;;13.56;nan
12468;BME280;57850;52.922;6.256;2024-03-25T03:47:29;100827.47;;;13.90;nan
12468;BME280;57850;52.922;6.256;2024-03-25T03:49:56;100812.56;;;14.08;nan
12468;BME280;57850;52.922;6.256;2024-03-25T03:52:23;100817.13;;;13.87;nan
12468;BME280;57850;52.922;6.256;2024-03-25T03:54:50;100822.44;;;14.03;nan
12468;BME280;57850;52.922;6.256;2024-03-25T03:57:16;100833.03;;;13.12;nan
12468;BME280;57850;52.922;6.256;2024-03-25T03:59:42;100842.06;;;13.24;nan
12468;BME280;57850;52.922;6.256;2024-03-25T04:02:08;100840.59;;;13.18;nan
12468;BME280;57850;52.922;6.256;2024-03-25T04:04:34;100842.91;;;13.43;nan
12468;BME280;57850;52.922;6.256;2024-03-25T04:07:02;100845.13;;;13.15;nan
12468;BME280;57850;52.922;6.256;2024-03-25T04:09:30;100832.84;;;14.21;nan
12468;BME280;57850;52.922;6.256;2024-03-25T04:11:55;100833.91;;;13.66;nan
12468;BME280;57850;52.922;6.256;2024-03-25T04:14:22;100827.22;;;13.94;nan
12468;BME280;57850;52.922;6.256;2024-03-25T04:16:47;100836.56;;;13.83;nan
12468;BME280;57850;52.922;6.256;2024-03-25T04:19:14;100826.09;;;14.00;nan
12468;BME280;57850;52.922;6.256;2024-03-25T04:21:39;100832.16;;;14.18;nan
12468;BME280;57850;52.922;6.256;2024-03-25T04:24:06;100824.66;;;14.10;nan
12468;BME280;57850;52.922;6.256;2024-03-25T04:26:33;100832.59;;;14.26;nan
12468;BME280;57850;52.922;6.256;2024-03-25T04:29:00;100828.81;;;13.63;nan
12468;BME280;57850;52.922;6.256;2024-03-25T04:31:25;100835.56;;;13.85;nan
12468;BME280;57850;52.922;6.256;2024-03-25T04:33:52;100840.88;;;13.31;nan
12468;BME280;57850;52.922;6.256;2024-03-25T04:36:17;100841.13;;;13.44;nan
12468;BME280;57850;52.922;6.256;2024-03-25T04:38:44;100838.88;;;13.36;nan
12468;BME280;57850;52.922;6.256;2024-03-25T04:41:10;100835.66;;;13.12;nan
12468;BME280;57850;52.922;6.256;2024-03-25T04:43:37;100842.09;;;12.85;nan
12468;BME280;57850;52.922;6.256;2024-03-25T04:46:03;100855.63;;;12.95;nan
12468;BME280;57850;52.922;6.256;2024-03-25T04:48:28;100861.00;;;13.12;nan
12468;BME280;57850;52.922;6.256;2024-03-25T04:50:54;100866.22;;;13.30;nan
12468;BME280;57850;52.922;6.256;2024-03-25T04:53:20;100852.84;;;13.54;nan
12468;BME280;57850;52.922;6.256;2024-03-25T04:55:46;100842.00;;;13.61;nan
12468;BME280;57850;52.922;6.256;2024-03-25T04:58:12;100853.13;;;13.30;nan
12468;BME280;57850;52.922;6.256;2024-03-25T05:00:39;100859.63;;;13.22;nan
12468;BME280;57850;52.922;6.256;2024-03-25T05:03:05;100859.50;;;13.25;nan
12468;BME280;57850;52.922;6.256;2024-03-25T05:05:30;100868.63;;;13.16;nan
12468;BME280;57850;52.922;6.256;2024-03-25T05:07:56;100872.78;;;13.02;nan
12468;BME280;57850;52.922;6.256;2024-03-25T05:10:22;100873.28;;;13.10;nan
12468;BME280;57850;52.922;6.256;2024-03-25T05:12:48;100865.16;;;13.16;nan
12468;BME280;57850;52.922;6.256;2024-03-25T05:15:14;100876.09;;;13.05;nan
12468;BME280;57850;52.922;6.256;2024-03-25T05:17:41;100868.97;;;12.70;nan
12468;BME280;57850;52.922;6.256;2024-03-25T05:20:08;100880.94;;;12.37;nan
12468;BME280;57850;52.922;6.256;2024-03-25T05:22:34;100875.03;;;12.52;nan
12468;BME280;57850;52.922;6.256;2024-03-25T05:25:00;100868.69;;;12.76;nan
12468;BME280;57850;52.922;6.256;2024-03-25T05:27:26;100872.69;;;12.46;nan
12468;BME280;57850;52.922;6.256;2024-03-25T05:29:52;100880.75;;;12.60;nan
12468;BME280;57850;52.922;6.256;2024-03-25T05:32:17;100880.59;;;12.44;nan
12468;BME280;57850;52.922;6.256;2024-03-25T05:34:44;100882.88;;;12.11;nan
12468;BME280;57850;52.922;6.256;2024-03-25T05:37:10;100877.69;;;12.10;nan
12468;BME280;57850;52.922;6.256;2024-03-25T05:39:36;100895.84;;;12.14;nan
12468;BME280;57850;52.922;6.256;2024-03-25T05:42:02;100884.44;;;11.95;nan
12468;BME280;57850;52.922;6.256;2024-03-25T05:44:28;100890.38;;;11.99;nan
12468;BME280;57850;52.922;6.256;2024-03-25T05:46:53;100887.97;;;12.14;nan
12468;BME280;57850;52.922;6.256;2024-03-25T05:49:19;100886.94;;;12.18;nan
12468;BME280;57850;52.922;6.256;2024-03-25T05:51:46;100892.13;;;12.40;nan
12468;BME280;57850;52.922;6.256;2024-03-25T05:54:12;100892.06;;;12.21;nan
12468;BME280;57850;52.922;6.256;2024-03-25T05:56:38;100891.19;;;12.21;nan
12468;BME280;57850;52.922;6.256;2024-03-25T05:59:04;100901.47;;;12.46;nan
12468;BME280;57850;52.922;6.256;2024-03-25T06:01:30;100901.00;;;12.36;nan
12468;BME280;57850;52.922;6.256;2024-03-25T06:03:55;100902.66;;;12.18;nan
12468;BME280;57850;52.922;6.256;2024-03-25T06:06:21;100894.84;;;12.17;nan
12468;BME280;57850;52.922;6.256;2024-03-25T06:08:49;100907.31;;;12.10;nan
12468;BME280;57850;52.922;6.256;2024-03-25T06:11:15;100893.88;;;12.19;nan
12468;BME280;57850;52.922;6.256;2024-03-25T06:13:40;100899.56;;;12.29;nan
12468;BME280;57850;52.922;6.256;2024-03-25T06:16:06;100898.84;;;12.25;nan
12468;BME280;57850;52.922;6.256;2024-03-25T06:18:32;100896.38;;;12.43;nan
12468;BME280;57850;52.922;6.256;2024-03-25T06:20:58;100894.47;;;12.85;nan
12468;BME280;57850;52.922;6.256;2024-03-25T06:23:24;100892.16;;;12.98;nan
12468;BME280;57850;52.922;6.256;2024-03-25T06:25:52;100873.72;;;13.19;nan
12468;BME280;57850;52.922;6.256;2024-03-25T06:28:18;100880.03;;;13.15;nan
12468;BME280;57850;52.922;6.256;2024-03-25T06:30:45;100882.34;;;13.03;nan
12468;BME280;57850;52.922;6.256;2024-03-25T06:33:29;100876.31;;;13.01;nan
12468;BME280;57850;52.922;6.256;2024-03-25T06:36:12;100867.41;;;13.23;nan
12468;BME280;57850;52.922;6.256;2024-03-25T06:38:38;100870.38;;;13.34;nan
12468;BME280;57850;52.922;6.256;2024-03-25T06:41:05;100861.38;;;13.59;nan
12468;BME280;57850;52.922;6.256;2024-03-25T06:43:31;100871.41;;;13.85;nan
12468;BME280;57850;52.922;6.256;2024-03-25T06:45:56;100867.28;;;13.81;nan
12468;BME280;57850;52.922;6.256;2024-03-25T06:48:22;100862.81;;;14.00;nan
12468;BME280;57850;52.922;6.256;2024-03-25T06:50:55;100865.13;;;14.23;nan
12468;BME280;57850;52.922;6.256;2024-03-25T06:53:20;100853.69;;;14.24;nan
12468;BME280;57850;52.922;6.256;2024-03-25T06:55:53;100871.97;;;13.91;nan
12468;BME280;57850;52.922;6.256;2024-03-25T06:58:22;100875.13;;;13.98;nan
12468;BME280;57850;52.922;6.256;2024-03-25T07:00:48;100874.72;;;13.71;nan
12468;BME280;57850;52.922;6.256;2024-03-25T07:03:14;100875.66;;;14.40;nan
12468;BME280;57850;52.922;6.256;2024-03-25T07:05:41;100870.13;;;14.45;nan
12468;BME280;57850;52.922;6.256;2024-03-25T07:08:06;100868.66;;;14.57;nan
12468;BME280;57850;52.922;6.256;2024-03-25T07:10:32;100862.25;;;14.62;nan
12468;BME280;57850;52.922;6.256;2024-03-25T07:12:58;100854.31;;;14.79;nan
12468;BME280;57850;52.922;6.256;2024-03-25T07:15:25;100869.75;;;14.35;nan
12468;BME280;57850;52.922;6.256;2024-03-25T07:17:50;100873.56;;;14.47;nan
12468;BME280;57850;52.922;6.256;2024-03-25T07:20:16;100869.75;;;14.53;nan
12468;BME280;57850;52.922;6.256;2024-03-25T07:22:42;100860.88;;;15.03;nan
12468;BME280;57850;52.922;6.256;2024-03-25T07:25:08;100881.47;;;14.28;nan
12468;BME280;57850;52.922;6.256;2024-03-25T07:27:35;100864.63;;;14.67;nan
12468;BME280;57850;52.922;6.256;2024-03-25T07:30:01;100874.81;;;15.21;nan
12468;BME280;57850;52.922;6.256;2024-03-25T07:32:28;100862.59;;;15.36;nan
12468;BME280;57850;52.922;6.256;2024-03-25T07:34:54;100865.81;;;15.25;nan
12468;BME280;57850;52.922;6.256;2024-03-25T07:37:20;100877.88;;;14.81;nan
12468;BME280;57850;52.922;6.256;2024-03-25T07:39:45;100865.47;;;15.78;nan
12468;BME280;57850;52.922;6.256;2024-03-25T07:42:11;100851.69;;;16.19;nan
12468;BME280;57850;52.922;6.256;2024-03-25T07:44:37;100869.75;;;15.49;nan
12468;BME280;57850;52.922;6.256;2024-03-25T07:47:03;100858.53;;;15.91;nan
12468;BME280;57850;52.922;6.256;2024-03-25T07:49:30;100852.41;;;16.50;nan
12468;BME280;57850;52.922;6.256;2024-03-25T07:51:56;100855.72;;;15.94;nan
12468;BME280;57850;52.922;6.256;2024-03-25T07:54:22;100854.00;;;16.67;nan
12468;BME280;57850;52.922;6.256;2024-03-25T07:56:48;100866.31;;;16.52;nan
12468;BME280;57850;52.922;6.256;2024-03-25T07:59:13;100836.13;;;16.58;nan
12468;BME280;57850;52.922;6.256;2024-03-25T08:01:39;100868.69;;;15.68;nan
12468;BME280;57850;52.922;6.256;2024-03-25T08:04:05;100860.03;;;16.11;nan
12468;BME280;57850;52.922;6.256;2024-03-25T08:06:32;100847.81;;;16.82;nan
12468;BME280;57850;52.922;6.256;2024-03-25T08:08:57;100861.84;;;16.25;nan
12468;BME280;57850;52.922;6.256;2024-03-25T08:11:23;100862.53;;;16.28;nan
12468;BME280;57850;52.922;6.256;2024-03-25T08:13:49;100872.25;;;15.67;nan
12468;BME280;57850;52.922;6.256;2024-03-25T08:16:14;100858.03;;;16.44;nan
12468;BME280;57850;52.922;6.256;2024-03-25T08:18:40;100841.94;;;17.20;nan
12468;BME280;57850;52.922;6.256;2024-03-25T08:21:06;100858.97;;;16.43;nan
12468;BME280;57850;52.922;6.256;2024-03-25T08:23:33;100855.00;;;17.21;nan
12468;BME280;57850;52.922;6.256;2024-03-25T08:25:58;100842.09;;;16.76;nan
12468;BME280;57850;52.922;6.256;2024-03-25T08:28:24;100841.09;;;17.19;nan
12468;BME280;57850;52.922;6.256;2024-03-25T08:30:50;100841.97;;;17.32;nan
12468;BME280;57850;52.922;6.256;2024-03-25T08:33:15;100841.59;;;16.83;nan
12468;BME280;57850;52.922;6.256;2024-03-25T08:35:41;100845.44;;;16.92;nan
12468;BME280;57850;52.922;6.256;2024-03-25T08:38:07;100843.78;;;16.63;nan
12468;BME280;57850;52.922;6.256;2024-03-25T08:40:34;100841.63;;;16.69;nan
12468;BME280;57850;52.922;6.256;2024-03-25T08:43:00;100824.97;;;17.24;nan
12468;BME280;57850;52.922;6.256;2024-03-25T08:45:26;100816.41;;;18.13;nan
12468;BME280;57850;52.922;6.256;2024-03-25T08:47:52;100805.88;;;19.36;nan
12468;BME280;57850;52.922;6.256;2024-03-25T08:50:18;100798.66;;;19.51;nan
12468;BME280;57850;52.922;6.256;2024-03-25T08:52:44;100814.28;;;18.18;nan
12468;BME280;57850;52.922;6.256;2024-03-25T08:55:10;100823.38;;;18.27;nan
12468;BME280;57850;52.922;6.256;2024-03-25T08:57:37;100809.53;;;18.73;nan
12468;BME280;57850;52.922;6.256;2024-03-25T09:00:03;100807.56;;;18.52;nan
12468;BME280;57850;52.922;6.256;2024-03-25T09:02:29;100813.56;;;18.79;nan
12468;BME280;57850;52.922;6.256;2024-03-25T09:04:55;100802.91;;;19.17;nan
12468;BME280;57850;52.922;6.256;2024-03-25T09:07:21;100814.28;;;18.31;nan
12468;BME280;57850;52.922;6.256;2024-03-25T09:09:47;100841.38;;;17.55;nan
12468;BME280;57850;52.922;6.256;2024-03-25T09:12:31;100832.31;;;17.99;nan
12468;BME280;57850;52.922;6.256;2024-03-25T09:14:58;100806.28;;;17.67;nan
12468;BME280;57850;52.922;6.256;2024-03-25T09:17:24;100792.50;;;18.90;nan
12468;BME280;57850;52.922;6.256;2024-03-25T09:19:50;100798.69;;;19.02;nan
12468;BME280;57850;52.922;6.256;2024-03-25T09:22:15;100787.69;;;20.36;nan
12468;BME280;57850;52.922;6.256;2024-03-25T09:24:41;100758.97;;;21.51;nan
12468;BME280;57850;52.922;6.256;2024-03-25T09:27:09;100783.25;;;19.91;nan
12468;BME280;57850;52.922;6.256;2024-03-25T09:29:35;100796.50;;;19.32;nan
12468;BME280;57850;52.922;6.256;2024-03-25T09:32:03;100761.00;;;19.93;nan
12468;BME280;57850;52.922;6.256;2024-03-25T09:34:29;100789.50;;;19.07;nan
12468;BME280;57850;52.922;6.256;2024-03-25T09:36:55;100803.00;;;18.29;nan
12468;BME280;57850;52.922;6.256;2024-03-25T09:39:20;100792.75;;;18.62;nan
12468;BME280;57850;52.922;6.256;2024-03-25T09:41:48;100830.91;;;17.54;nan
12468;BME280;57850;52.922;6.256;2024-03-25T09:44:18;100804.25;;;18.48;nan
12468;BME280;57850;52.922;6.256;2024-03-25T09:46:44;100795.06;;;19.15;nan
12468;BME280;57850;52.922;6.256;2024-03-25T09:49:12;100812.28;;;18.34;nan
12468;BME280;57850;52.922;6.256;2024-03-25T09:51:38;100802.28;;;19.13;nan
12468;BME280;57850;52.922;6.256;2024-03-25T09:54:04;100791.50;;;19.27;nan
12468;BME280;57850;52.922;6.256;2024-03-25T09:56:30;100744.00;;;21.18;nan
12468;BME280;57850;52.922;6.256;2024-03-25T09:58:57;100762.41;;;20.43;nan
12468;BME280;57850;52.922;6.256;2024-03-25T10:01:23;100726.44;;;20.95;nan
12468;BME280;57850;52.922;6.256;2024-03-25T10:03:48;100710.00;;;22.26;nan
12468;BME280;57850;52.922;6.256;2024-03-25T10:06:15;100712.03;;;20.65;nan
12468;BME280;57850;52.922;6.256;2024-03-25T10:08:41;100731.63;;;19.85;nan
12468;BME280;57850;52.922;6.256;2024-03-25T10:11:07;100710.72;;;20.38;nan
12468;BME280;57850;52.922;6.256;2024-03-25T10:13:33;100711.81;;;21.43;nan
12468;BME280;57850;52.922;6.256;2024-03-25T10:15:58;100731.31;;;20.56;nan
12468;BME280;57850;52.922;6.256;2024-03-25T10:18:24;100723.69;;;21.39;nan
12468;BME280;57850;52.922;6.256;2024-03-25T10:20:50;100730.72;;;20.64;nan
12468;BME280;57850;52.922;6.256;2024-03-25T10:23:20;100691.16;;;21.26;nan
12468;BME280;57850;52.922;6.256;2024-03-25T10:25:47;100713.22;;;20.72;nan
12468;BME280;57850;52.922;6.256;2024-03-25T10:28:13;100709.50;;;20.19;nan
12468;BME280;57850;52.922;6.256;2024-03-25T10:30:40;100692.66;;;20.97;nan
12468;BME280;57850;52.922;6.256;2024-03-25T10:33:07;100721.91;;;19.51;nan
12468;BME280;57850;52.922;6.256;2024-03-25T10:35:34;100715.16;;;20.04;nan
12468;BME280;57850;52.922;6.256;2024-03-25T10:38:02;100692.78;;;20.30;nan
12468;BME280;57850;52.922;6.256;2024-03-25T10:40:31;100696.94;;;21.52;nan
12468;BME280;57850;52.922;6.256;2024-03-25T10:43:01;100702.19;;;21.42;nan
12468;BME280;57850;52.922;6.256;2024-03-25T10:45:29;100684.75;;;21.49;nan
12468;BME280;57850;52.922;6.256;2024-03-25T10:47:57;100681.84;;;22.64;nan
12468;BME280;57850;52.922;6.256;2024-03-25T10:50:26;100672.75;;;21.96;nan
12468;BME280;57850;52.922;6.256;2024-03-25T10:52:54;100666.44;;;21.67;nan
12468;BME280;57850;52.922;6.256;2024-03-25T10:55:20;100680.22;;;21.81;nan
12468;BME280;57850;52.922;6.256;2024-03-25T10:57:48;100682.59;;;21.84;nan
12468;BME280;57850;52.922;6.256;2024-03-25T11:00:15;100682.88;;;20.65;nan
12468;BME280;57850;52.922;6.256;2024-03-25T11:02:42;100679.25;;;21.62;nan
12468;BME280;57850;52.922;6.256;2024-03-25T11:05:09;100657.59;;;22.57;nan
12468;BME280;57850;52.922;6.256;2024-03-25T11:07:35;100652.38;;;22.36;nan
12468;BME280;57850;52.922;6.256;2024-03-25T11:10:05;100693.97;;;21.13;nan
12468;BME280;57850;52.922;6.256;2024-03-25T11:12:38;100703.81;;;20.02;nan
12468;BME280;57850;52.922;6.256;2024-03-25T11:15:08;100698.66;;;20.22;nan
12468;BME280;57850;52.922;6.256;2024-03-25T11:17:35;100721.53;;;19.55;nan
12468;BME280;57850;52.922;6.256;2024-03-25T11:20:08;100696.16;;;19.29;nan
12468;BME280;57850;52.922;6.256;2024-03-25T11:22:35;100671.41;;;20.76;nan
12468;BME280;57850;52.922;6.256;2024-03-25T11:25:11;100670.50;;;20.87;nan
12468;BME280;57850;52.922;6.256;2024-03-25T11:27:37;100670.56;;;20.75;nan
12468;BME280;57850;52.922;6.256;2024-03-25T11:30:03;100683.75;;;20.87;nan
12468;BME280;57850;52.922;6.256;2024-03-25T11:32:46;100628.53;;;22.65;nan
12468;BME280;57850;52.922;6.256;2024-03-25T11:35:12;100622.81;;;21.90;nan
12468;BME280;57850;52.922;6.256;2024-03-25T11:37:39;100615.13;;;21.25;nan
12468;BME280;57850;52.922;6.256;2024-03-25T11:40:06;100620.50;;;21.55;nan
12468;BME280;57850;52.922;6.256;2024-03-25T11:42:32;100627.72;;;21.64;nan
12468;BME280;57850;52.922;6.256;2024-03-25T11:44:59;100621.06;;;22.59;nan
12468;BME280;57850;52.922;6.256;2024-03-25T11:47:25;100606.28;;;23.05;nan
12468;BME280;57850;52.922;6.256;2024-03-25T11:49:53;100633.84;;;21.44;nan
12468;BME280;57850;52.922;6.256;2024-03-25T11:52:18;100602.28;;;21.92;nan
12468;BME280;57850;52.922;6.256;2024-03-25T11:54:44;100586.81;;;21.76;nan
12468;BME280;57850;52.922;6.256;2024-03-25T11:57:10;100614.31;;;22.36;nan
12468;BME280;57850;52.922;6.256;2024-03-25T11:59:36;100573.75;;;22.63;nan
12468;BME280;57850;52.922;6.256;2024-03-25T12:02:05;100625.81;;;21.76;nan
12468;BME280;57850;52.922;6.256;2024-03-25T12:04:31;100600.19;;;21.45;nan
12468;BME280;57850;52.922;6.256;2024-03-25T12:06:58;100580.97;;;21.62;nan
12468;BME280;57850;52.922;6.256;2024-03-25T12:09:24;100592.28;;;21.84;nan
12468;BME280;57850;52.922;6.256;2024-03-25T12:12:09;100567.00;;;22.30;nan
12468;BME280;57850;52.922;6.256;2024-03-25T12:14:34;100571.38;;;23.46;nan
12468;BME280;57850;52.922;6.256;2024-03-25T12:17:01;100573.19;;;23.26;nan
12468;BME280;57850;52.922;6.256;2024-03-25T12:19:27;100535.91;;;23.45;nan
12468;BME280;57850;52.922;6.256;2024-03-25T12:22:00;100542.03;;;25.08;nan
12468;BME280;57850;52.922;6.256;2024-03-25T12:24:26;100530.53;;;25.41;nan
12468;BME280;57850;52.922;6.256;2024-03-25T12:26:52;100522.13;;;25.54;nan
12468;BME280;57850;52.922;6.256;2024-03-25T12:29:18;100519.53;;;24.58;nan
12468;BME280;57850;52.922;6.256;2024-03-25T12:31:53;100558.50;;;22.74;nan
12468;BME280;57850;52.922;6.256;2024-03-25T12:34:19;100544.03;;;22.19;nan
12468;BME280;57850;52.922;6.256;2024-03-25T12:36:45;100550.56;;;22.06;nan
12468;BME280;57850;52.922;6.256;2024-03-25T12:39:16;100535.09;;;22.20;nan
12468;BME280;57850;52.922;6.256;2024-03-25T12:41:42;100560.47;;;21.94;nan
12468;BME280;57850;52.922;6.256;2024-03-25T12:44:07;100547.09;;;22.24;nan
12468;BME280;57850;52.922;6.256;2024-03-25T12:46:33;100551.94;;;22.69;nan
12468;BME280;57850;52.922;6.256;2024-03-25T12:48:59;100541.47;;;22.86;nan
12468;BME280;57850;52.922;6.256;2024-03-25T12:51:24;100509.09;;;24.99;nan
12468;BME280;57850;52.922;6.256;2024-03-25T12:53:50;100469.00;;;24.56;nan
12468;BME280;57850;52.922;6.256;2024-03-25T12:56:17;100515.25;;;22.82;nan
12468;BME280;57850;52.922;6.256;2024-03-25T12:58:43;100505.75;;;23.45;nan
12468;BME280;57850;52.922;6.256;2024-03-25T13:01:09;100482.19;;;24.93;nan
12468;BME280;57850;52.922;6.256;2024-03-25T13:03:35;100507.44;;;25.32;nan
12468;BME280;57850;52.922;6.256;2024-03-25T13:06:00;100498.13;;;24.85;nan